Bee Bayou, Louisiana
Current Conditions -  °F | °C
As of 8:53 PM on Wednesday 26 Nov 2014 (Local Time) from KMLU Reporting Station
Clear Clear  
Wind Chill: 50°   Ceiling: Unl
Heat Index: 50°   Visibility: 10mi
Dew Point: 36°   Wind: 5mph
Humidity: 59%   Direction: 310°NW
Pressure: 30.25"   Gusts: NA
Location:  32.4475°N, 91.7992°W
Report Text: KMLU 270253Z 31004KT 10SM CLR 10/02 A3025 RMK AO2 SLP242 T01000022 53030
Loading
Personal Weather Stations






























Interactive Weather Map New forecast layout! Learn more

10-Day Weather Forecast

Advertisements
Track Severe Weather on mobile